Flight Track Log - Related Links

Times and Time Zones

All times are in EDT time to prevent confusion due to time zone crossing. See the RPA5771 flight status page for this flight to view local times or setup timezone preferences in your user account.

Time Position Orientation Groundspeed Altitude Reporting Facility
EDT Latitude Longitude Course Direction KTS MPH feet Rate Location/Type
Tue 02:46:46 PM 39.3903 -74.5631 218° Southwest 266 306 4,200  Level Washington Center
Tue 02:47:45 PM 39.3619 -74.6547 248° West 270 311 7,000 1,412 Climbing Washington Center
Tue 02:48:45 PM 39.3333 -74.7383 246° West 270 311 7,000 1,150 Level Washington Center
Tue 02:49:45 PM 39.3067 -74.8244 248° West 270 311 9,300 2,281 Climbing Washington Center
Tue 02:50:46 PM 39.2739 -74.9186 246° West 277 319 11,600 2,479 Climbing Washington Center
Tue 02:51:00 PM 39.4422 -74.6027 232° Southwest  Level FlightAware Approximate
Tue 02:51:46 PM 39.2581 -75.0286 260° West 293 337 14,300  Level Washington Center
Tue 02:52:00 PM 39.3758 -74.7075 218° Southwest  Level FlightAware Approximate
Tue 02:52:44 PM 39.2500 -75.1439 265° West 308 354 16,500  Level Washington Center
Tue 02:53:44 PM 39.2464 -75.2619 268° West 326 375 17,000 248 Climbing Washington Center
Tue 02:54:45 PM 39.2675 -75.3664 285° West 315 362 17,000 984 Level Washington Center
Tue 02:55:46 PM 39.3531 -75.4225 333° Northwest 296 341 19,000 2,361 Climbing Washington Center
Tue 02:56:47 PM 39.4406 -75.4706 337° Northwest 315 362 21,800 2,112 Climbing Washington Center
Tue 02:59:02 PM 39.6378 -75.5856 336° Northwest 344 396 25,900 1,692 Climbing New York Center
Tue 03:00:02 PM 39.7267 -75.6564 329° Northwest 362 417 27,300 1,050 Climbing New York Center
Tue 03:01:02 PM 39.8153 -75.7331 326° Northwest 378 435 28,000 350 Climbing New York Center
Tue 03:02:02 PM 39.9036 -75.8094 326° Northwest 383 441 28,000  Level New York Center
Tue 03:03:02 PM 40.0022 -75.8925 327° Northwest 383 441 28,000  Level New York Center
Tue 03:04:02 PM 40.0906 -75.9722 325° Northwest 383 441 28,000  Level New York Center
Tue 03:05:02 PM 40.1789 -76.0494 326° Northwest 383 441 28,000  Level New York Center
Tue 03:06:02 PM 40.2628 -76.1267 325° Northwest 377 434 28,000  Level New York Center
Tue 03:07:02 PM 40.3469 -76.2014 326° Northwest 377 434 28,000  Level New York Center
Tue 03:08:02 PM 40.4331 -76.2789 326° Northwest 377 434 28,000  Level New York Center
Tue 03:09:02 PM 40.5172 -76.3539 326° Northwest 371 427 28,000 -150 Level New York Center
Tue 03:10:02 PM 40.6011 -76.4292 326° Northwest 371 427 27,700 -650 Descending New York Center
Tue 03:11:02 PM 40.6950 -76.5136 326° Northwest 384 442 26,700 -850 Descending New York Center
Tue 03:12:02 PM 40.7850 -76.5925 326° Northwest 384 442 26,000 -350 Descending New York Center
Tue 03:13:02 PM 40.8667 -76.6653 326° Northwest 378 435 26,000 -350 Level New York Center
Tue 03:14:02 PM 40.9506 -76.7383 327° Northwest 365 420 25,300 -843 Descending New York Center
Tue 03:15:03 PM 41.0381 -76.8206 325° Northwest 371 427 24,300 -1,000 Descending New York Center
Tue 03:16:02 PM 41.1236 -76.8997 325° Northwest 371 427 23,300 -1,008 Descending New York Center
Tue 03:17:02 PM 41.2092 -76.9764 326° Northwest 371 427 22,300 -650 Descending New York Center
Tue 03:18:02 PM 41.2908 -77.0503 326° Northwest 371 427 22,000 -150 Descending New York Center
Tue 03:19:02 PM 41.3703 -77.1239 325° Northwest 355 409 22,000  Level New York Center
Tue 03:20:02 PM 41.4456 -77.1919 326° Northwest 342 394 22,000 -86 Level New York Center
Tue 03:22:32 PM 41.6575 -77.2950 340° North 351 404 21,700 -453 Descending Cleveland Center
Tue 03:23:34 PM 41.7614 -77.3239 348° North 375 432 20,400 -1,403 Descending Cleveland Center
Tue 03:24:36 PM 41.8836 -77.3525 350° North 376 433 18,800 -1,296 Descending Cleveland Center
Tue 03:25:39 PM 41.9833 -77.3786 349° North 370 426 17,700 -1,152 Descending Cleveland Center
Tue 03:26:41 PM 42.0842 -77.4042 349° North 370 426 16,400 -1,258 Descending Cleveland Center
Tue 03:27:43 PM 42.1822 -77.4294 349° North 366 421 15,100 -1,210 Descending Cleveland Center
Tue 03:28:45 PM 42.2778 -77.4539 349° North 357 411 13,900 -1,258 Descending Cleveland Center
Tue 03:29:47 PM 42.3894 -77.4822 349° North 344 396 12,500 -1,370 Descending Cleveland Center
Tue 03:30:17 PM 42.4378 -77.4972 347° North 337 388 11,800 -1,258 Descending Cleveland Center
Tue 03:30:49 PM 42.4847 -77.5067 352° North 340 391 11,200 -1,091 Descending Cleveland Center
Tue 03:31:12 PM 42.5178 -77.5153 349° North 334 384 10,800 -1,065 Descending Cleveland Center
Tue 03:31:51 PM 42.5717 -77.5283 350° North 319 367 10,100 -1,200 Descending Cleveland Center
Tue 03:32:12 PM 42.6031 -77.5289 359° North 272 313 9,600 -1,452 Descending Cleveland Center
Tue 03:32:53 PM 42.6481 -77.5275 North 284 327 8,600 -1,672 Descending Cleveland Center
Tue 03:33:13 PM 42.6778 -77.5253 North 273 314 7,900 -1,839 Descending Cleveland Center
Tue 03:33:55 PM 42.7314 -77.5283 358° North 276 318 6,700 -1,770 Descending Cleveland Center
Tue 03:34:14 PM 42.7558 -77.5283 360° North 274 315 6,100 -667 Descending Cleveland Center
Tue 03:34:58 PM 42.8078 -77.5308 358° North 276 318 6,000 -100 Descending Cleveland Center
Tue 03:35:14 PM 42.8339 -77.5317 359° North 282 325 6,000 -968 Level Cleveland Center
Tue 03:36:00 PM 42.8850 -77.5333 359° North 277 319 5,000 -1,527 Descending Cleveland Center
Tue 03:36:09 PM 42.9039 -77.5325 North 279 321 4,600 -1,355 Descending Cleveland Center
Tue 03:37:02 PM 42.9619 -77.5356 358° North 277 319 3,600 -1,400 Descending Cleveland Center
Tue 03:37:09 PM 42.9794 -77.5381 354° North 271 312 3,200 -1,065 Descending Cleveland Center
Tue 03:38:04 PM 43.0342 -77.5392 359° North 270 311 2,500 -689 Descending Cleveland Center
Tue 03:38:10 PM 43.0514 -77.5394 359° North 255 293 2,500  Level Cleveland Center
Tue 03:39:17 PM 43.1244 -77.5472 356° North 215 247 2,500  Level Cleveland Center
Tue 03:40:08 PM 43.1681 -77.5686 340° North 220 253 2,500  Level Cleveland Center
Tue 03:40:17 PM 43.1744 -77.5836 300° West 186 214 2,500 -581 Level Cleveland Center
Tue 03:41:10 PM 43.1750 -77.6311 271° West 202 232 1,900 -984 Descending Cleveland Center
Tue 03:41:18 PM 43.1667 -77.6394 216° Southwest 167 192 1,500 -968 Descending Cleveland Center
Tue 03:42:12 PM 43.1394 -77.6592 208° Southwest 166 191 900 -689 Descending Cleveland Center
Tue 03:42:19 PM 43.1333 -77.6656 217° Southwest 132 152 800 -387 Descending Cleveland Center
Tue 03:43:14 PM 43.1111 -77.6836 211° Southwest 140 161 500 -327 Descending Cleveland Center

Login

Don't have an account? Register now (free) for customized features, flight alerts, and more!